Time;durP1;ratioP1;P1;durP2;ratioP2;P2;SDS_P1;SDS_P2;PMS_P1;PMS_P2;Temp;Humidity;BMP_temperature;BMP_pressure;BME280_temperature;BME280_humidity;BME280_pressure;Samples;Min_cycle;Max_cycle;Signal;HPM_P1;HPM_P2
2021/07/04 00:00:14;;;;;;;0.40;0.40;;;;;;;16.24;80.16;96661.13;29395;222;63014;-61
2021/07/04 00:00:46;;;;;;;0.40;0.40;;;;;;;16.25;80.07;96660.00;29395;208;63008;-61
2021/07/04 00:01:17;;;;;;;0.30;0.30;;;;;;;16.25;79.94;96654.53;29394;212;64008;-61
2021/07/04 00:01:48;;;;;;;0.40;0.40;;;;;;;16.26;80.53;96653.38;29395;293;63009;-61
2021/07/04 00:02:20;;;;;;;0.30;0.30;;;;;;;16.28;79.95;96651.12;29395;216;63005;-61
2021/07/04 00:02:54;;;;;;;0.30;0.30;;;;;;;16.32;80.01;96660.25;29395;228;63009;-61
2021/07/04 00:03:25;;;;;;;0.30;0.30;;;;;;;16.36;79.96;96661.16;29394;271;64009;-60
2021/07/04 00:03:56;;;;;;;0.40;0.40;;;;;;;16.39;79.67;96655.84;29395;227;63024;-62
2021/07/04 00:04:28;;;;;;;0.30;0.30;;;;;;;16.45;79.38;96655.63;29395;227;63015;-59
2021/07/04 00:04:59;;;;;;;0.40;0.40;;;;;;;16.42;79.47;96657.91;29394;373;64013;-62
2021/07/04 00:05:40;;;;;;;0.40;0.40;;;;;;;16.40;79.55;96648.41;29394;232;64020;-60
2021/07/04 00:06:11;;;;;;;0.37;0.37;;;;;;;16.38;79.58;96656.16;29417;209;63009;-61
2021/07/04 00:06:43;;;;;;;0.40;0.40;;;;;;;16.40;79.56;96654.69;29395;225;63004;-61
2021/07/04 00:07:14;;;;;;;0.40;0.40;;;;;;;16.39;79.67;96653.09;29395;308;63009;-61
2021/07/04 00:07:45;;;;;;;0.40;0.40;;;;;;;16.39;79.58;96652.28;29394;202;64009;-61
2021/07/04 00:08:19;;;;;;;0.40;0.40;;;;;;;16.36;79.42;96650.22;29395;245;63008;-61
2021/07/04 00:08:50;;;;;;;0.40;0.40;;;;;;;16.32;80.23;96652.03;29395;273;63004;-60
2021/07/04 00:09:23;;;;;;;0.40;0.40;;;;;;;16.28;80.95;96645.66;29395;208;63009;-60
2021/07/04 00:09:57;;;;;;;0.40;0.40;;;;;;;16.24;80.57;96650.19;29395;212;63005;-62
2021/07/04 00:10:35;;;;;;;0.30;0.30;;;;;;;16.19;80.72;96653.13;29395;202;63009;-58
2021/07/04 00:11:08;;;;;;;0.40;0.40;;;;;;;16.20;80.96;96654.72;29395;244;63005;-60
2021/07/04 00:11:43;;;;;;;0.40;0.40;;;;;;;16.18;80.87;96646.84;29395;233;63009;-60
2021/07/04 00:12:14;;;;;;;0.52;0.52;;;;;;;16.18;80.57;96657.78;29395;223;63005;-60
2021/07/04 00:12:46;;;;;;;0.40;0.40;;;;;;;16.18;80.46;96652.31;29394;197;64013;-61
2021/07/04 00:13:18;;;;;;;0.40;0.40;;;;;;;16.18;80.51;96657.00;29395;204;63004;-60
2021/07/04 00:13:53;;;;;;;0.40;0.40;;;;;;;16.17;80.42;96649.91;29394;312;64013;-61
2021/07/04 00:14:24;;;;;;;0.40;0.40;;;;;;;16.16;80.59;96653.78;29394;209;63996;-61
2021/07/04 00:14:55;;;;;;;0.40;0.40;;;;;;;16.17;80.51;96655.37;29395;341;63009;-61
2021/07/04 00:15:30;;;;;;;0.30;0.30;;;;;;;16.16;80.89;96651.84;29395;224;63004;-62
2021/07/04 00:16:02;;;;;;;0.37;0.37;;;;;;;16.14;80.92;96650.59;29395;273;63024;-61
2021/07/04 00:16:34;;;;;;;0.40;0.40;;;;;;;16.14;80.42;96650.59;29395;330;63004;-60
2021/07/04 00:17:05;;;;;;;0.40;0.40;;;;;;;16.14;80.75;96656.06;29395;204;63018;-62
2021/07/04 00:17:36;;;;;;;0.40;0.40;;;;;;;16.18;80.76;96654.25;29395;199;63005;-61
2021/07/04 00:18:14;;;;;;;0.40;0.40;;;;;;;16.18;80.51;96651.53;29395;230;63009;-61
2021/07/04 00:18:46;;;;;;;0.40;0.40;;;;;;;16.18;80.50;96648.78;29394;273;64009;-60
2021/07/04 00:19:17;;;;;;;0.40;0.40;;;;;;;16.18;80.56;96654.25;29395;324;63009;-61
2021/07/04 00:19:48;;;;;;;0.40;0.40;;;;;;;16.16;80.50;96654.59;29395;211;63005;-61
2021/07/04 00:20:22;;;;;;;0.40;0.40;;;;;;;16.15;80.49;96652.19;29395;196;63009;-61
2021/07/04 00:20:56;;;;;;;0.40;0.40;;;;;;;16.14;80.48;96656.06;29395;221;63004;-60
2021/07/04 00:21:27;;;;;;;0.40;0.40;;;;;;;16.14;80.36;96661.53;29394;236;64013;-61
2021/07/04 00:21:58;;;;;;;0.40;0.40;;;;;;;16.13;80.64;96660.72;29395;221;63004;-57
2021/07/04 00:22:29;;;;;;;0.40;0.40;;;;;;;16.12;80.90;96667.34;29395;209;63009;-61
2021/07/04 00:23:00;;;;;;;0.30;0.30;;;;;;;16.11;80.62;96664.94;29395;270;63004;-61
2021/07/04 00:23:32;;;;;;;0.40;0.40;;;;;;;16.09;80.63;96663.31;29394;259;64013;-60
2021/07/04 00:24:04;;;;;;;0.40;0.40;;;;;;;16.08;80.74;96658.19;29394;193;64008;-62
2021/07/04 00:24:37;;;;;;;0.40;0.40;;;;;;;16.08;81.10;96664.47;29395;197;63009;-60
2021/07/04 00:25:11;;;;;;;0.50;0.50;;;;;;;16.09;81.00;96663.31;29395;206;63005;-60
2021/07/04 00:25:44;;;;;;;0.40;0.40;;;;;;;16.08;81.08;96675.41;29395;304;63009;-61
2021/07/04 00:26:16;;;;;;;0.40;0.40;;;;;;;16.07;81.03;96670.28;29395;206;63005;-61
2021/07/04 00:26:47;;;;;;;0.40;0.40;;;;;;;16.06;81.25;96676.88;29395;206;63009;-61
2021/07/04 00:27:19;;;;;;;0.32;0.32;;;;;;;16.04;81.31;96674.47;29395;347;63005;-60
2021/07/04 00:27:51;;;;;;;0.40;0.40;;;;;;;16.02;81.34;96670.47;29395;346;63009;-61
2021/07/04 00:28:23;;;;;;;0.30;0.30;;;;;;;16.01;81.14;96675.12;29395;211;63004;-61
2021/07/04 00:28:55;;;;;;;0.35;0.35;;;;;;;16.02;81.53;96681.41;29394;268;64013;-60
2021/07/04 00:29:26;;;;;;;0.40;0.40;;;;;;;16.02;81.35;96682.22;29395;202;63000;-60
2021/07/04 00:29:57;;;;;;;0.40;0.40;;;;;;;16.01;81.72;96680.59;29395;247;63013;-62
2021/07/04 00:30:29;;;;;;;0.40;0.40;;;;;;;16.00;81.79;96672.72;29395;208;63008;-60
2021/07/04 00:31:00;;;;;;;0.40;0.40;;;;;;;15.99;82.49;96671.94;29395;198;63008;-60
2021/07/04 00:31:31;;;;;;;0.40;0.40;;;;;;;15.98;82.31;96680.47;29395;345;63004;-61
2021/07/04 00:32:04;;;;;;;0.40;0.40;;;;;;;15.97;82.07;96679.66;29395;202;63009;-61
2021/07/04 00:32:36;;;;;;;0.40;0.40;;;;;;;15.97;82.08;96682.41;29395;321;63005;-60
2021/07/04 00:33:07;;;;;;;0.40;0.40;;;;;;;15.97;82.12;96676.94;29395;230;63009;-60
2021/07/04 00:33:38;;;;;;;0.40;0.40;;;;;;;15.97;81.76;96668.72;29395;258;63005;-60
2021/07/04 00:34:10;;;;;;;0.40;0.40;;;;;;;15.97;81.79;96685.13;29394;225;64013;-61
2021/07/04 00:34:41;;;;;;;0.32;0.32;;;;;;;15.97;82.89;96668.72;29395;268;63005;-61
2021/07/04 00:35:14;;;;;;;0.40;0.40;;;;;;;15.95;82.74;96673.72;29395;227;63009;-61
2021/07/04 00:35:46;;;;;;;0.40;0.40;;;;;;;15.95;82.31;96676.47;29395;274;63005;-61
2021/07/04 00:36:18;;;;;;;0.40;0.40;;;;;;;15.95;82.54;96676.47;29395;220;63018;-60
2021/07/04 00:36:49;;;;;;;0.40;0.40;;;;;;;15.96;82.14;96674.53;29395;203;63004;-60
2021/07/04 00:37:20;;;;;;;0.40;0.40;;;;;;;15.95;82.48;96670.19;29395;224;63019;-61
2021/07/04 00:37:52;;;;;;;0.40;0.40;;;;;;;15.97;82.29;96682.41;29395;314;63004;-61
2021/07/04 00:38:25;;;;;;;0.30;0.30;;;;;;;15.96;82.54;96675.31;29395;223;63008;-61
2021/07/04 00:38:56;;;;;;;0.40;0.40;;;;;;;15.96;82.24;96671.78;29395;196;63004;-61
2021/07/04 00:39:29;;;;;;;0.40;0.40;;;;;;;15.98;82.21;96678.53;29394;285;64014;-61
2021/07/04 00:40:00;;;;;;;0.40;0.40;;;;;;;16.01;82.12;96674.34;29395;325;63009;-61
2021/07/04 00:40:32;;;;;;;0.40;0.40;;;;;;;16.02;82.46;96676.75;29395;226;63009;-62
2021/07/04 00:41:04;;;;;;;0.40;0.40;;;;;;;16.03;82.32;96678.34;29395;291;63005;-60
2021/07/04 00:41:35;;;;;;;0.40;0.40;;;;;;;16.04;82.29;96674.47;29395;307;63009;-60
2021/07/04 00:42:10;;;;;;;0.40;0.40;;;;;;;16.04;81.99;96674.47;29395;202;63005;-60
2021/07/04 00:42:42;;;;;;;0.40;0.40;;;;;;;16.03;82.64;96677.53;29395;207;63009;-61
2021/07/04 00:43:13;;;;;;;0.35;0.35;;;;;;;16.02;82.14;96676.75;29395;280;63004;-61
2021/07/04 00:43:47;;;;;;;0.40;0.40;;;;;;;16.03;82.35;96664.66;29395;234;63009;-60
2021/07/04 00:44:19;;;;;;;0.30;0.30;;;;;;;16.08;81.94;96669.94;29395;202;63004;-61
2021/07/04 00:44:52;;;;;;;0.32;0.32;;;;;;;16.12;82.14;96672.00;29394;198;64013;-60
2021/07/04 00:45:26;;;;;;;0.40;0.40;;;;;;;16.16;81.87;96664.72;29395;279;63004;-60
2021/07/04 00:45:57;;;;;;;0.40;0.40;;;;;;;16.15;81.69;96668.59;29395;200;63008;-60
2021/07/04 00:46:30;;;;;;;0.30;0.30;;;;;;;16.13;82.28;96666.19;29395;225;63004;-61
2021/07/04 00:47:02;;;;;;;0.40;0.40;;;;;;;16.10;83.02;96666.88;29395;225;63009;-63
2021/07/04 00:47:34;;;;;;;0.40;0.40;;;;;;;16.05;82.98;96665.13;29395;202;63005;-61
2021/07/04 00:48:06;;;;;;;0.40;0.40;;;;;;;16.03;82.77;96661.13;29395;254;63009;-58
2021/07/04 00:48:37;;;;;;;0.40;0.40;;;;;;;16.03;82.49;96667.41;29395;234;63005;-60
2021/07/04 00:49:08;;;;;;;0.40;0.40;;;;;;;16.02;82.66;96671.25;29395;277;63009;-59
2021/07/04 00:49:42;;;;;;;0.40;0.40;;;;;;;16.02;82.58;96654.03;29395;271;63005;-61
2021/07/04 00:50:16;;;;;;;0.40;0.40;;;;;;;16.02;82.54;96665.00;29394;267;64013;-60
2021/07/04 00:50:47;;;;;;;0.40;0.40;;;;;;;16.01;82.52;96653.25;29395;266;63004;-60
2021/07/04 00:51:19;;;;;;;0.40;0.40;;;;;;;16.01;82.49;96647.75;29395;318;63009;-61
2021/07/04 00:51:54;;;;;;;0.40;0.40;;;;;;;16.03;82.65;96648.25;29395;209;63004;-61
2021/07/04 00:52:26;;;;;;;0.40;0.40;;;;;;;16.03;82.69;96650.97;29395;324;63016;-61
2021/07/04 00:52:59;;;;;;;0.40;0.40;;;;;;;16.02;82.34;96654.84;29395;221;63004;-60
2021/07/04 00:53:31;;;;;;;0.40;0.40;;;;;;;16.04;82.49;96649.84;29395;197;63009;-61
2021/07/04 00:54:02;;;;;;;0.40;0.40;;;;;;;16.04;82.38;96647.09;29395;317;63005;-60
2021/07/04 00:54:34;;;;;;;0.40;0.40;;;;;;;16.07;82.40;96645.63;29395;326;63009;-61
2021/07/04 00:55:07;;;;;;;0.40;0.40;;;;;;;16.06;82.75;96644.84;29394;227;64009;-61
2021/07/04 00:55:39;;;;;;;0.40;0.40;;;;;;;16.06;82.62;96642.09;29395;216;63009;-59
2021/07/04 00:56:10;;;;;;;0.40;0.40;;;;;;;16.11;82.33;96645.78;29395;231;63005;-62
2021/07/04 00:56:42;;;;;;;0.40;0.40;;;;;;;16.12;82.22;96644.62;29395;311;63009;-61
2021/07/04 00:57:15;;;;;;;0.40;0.40;;;;;;;16.11;82.06;96641.09;29395;224;63005;-62
2021/07/04 00:57:47;;;;;;;0.40;0.40;;;;;;;16.08;82.06;96634.34;29395;202;63009;-60
2021/07/04 00:58:20;;;;;;;0.40;0.40;;;;;;;16.06;82.33;96639.34;29395;220;63004;-62
2021/07/04 00:58:52;;;;;;;0.40;0.40;;;;;;;16.06;82.35;96644.03;29395;218;63009;-61
2021/07/04 00:59:23;;;;;;;0.40;0.40;;;;;;;16.04;82.71;96641.63;29395;277;63004;-61
2021/07/04 00:59:55;;;;;;;0.40;0.40;;;;;;;16.04;82.55;96646.31;29395;315;63019;-61
2021/07/04 01:00:29;;;;;;;0.40;0.40;;;;;;;16.04;82.25;96641.63;29394;203;63996;-61
2021/07/04 01:01:04;;;;;;;0.40;0.40;;;;;;;16.04;82.45;96641.63;29395;302;63008;-61
2021/07/04 01:01:37;;;;;;;0.40;0.40;;;;;;;16.02;82.35;96638.44;29395;204;63005;-61
2021/07/04 01:02:08;;;;;;;0.40;0.40;;;;;;;16.05;82.50;96637.75;29395;340;63009;-60
2021/07/04 01:02:39;;;;;;;0.40;0.40;;;;;;;16.04;82.25;96636.16;29395;287;63005;-57
2021/07/04 01:03:11;;;;;;;0.45;0.45;;;;;;;16.04;82.38;96635.34;29395;340;63009;-62
2021/07/04 01:03:42;;;;;;;0.40;0.40;;;;;;;16.02;82.92;96640.34;29395;198;63005;-61
2021/07/04 01:04:13;;;;;;;0.40;0.40;;;;;;;16.00;83.12;96634.41;29395;202;63009;-60
2021/07/04 01:04:45;;;;;;;0.40;0.40;;;;;;;15.98;82.94;96642.16;29395;292;63005;-61
2021/07/04 01:05:28;;;;;;;0.40;0.40;;;;;;;15.96;83.04;96639.75;29394;220;64013;-58
2021/07/04 01:06:00;;;;;;;0.40;0.40;;;;;;;15.95;83.34;96638.16;29395;214;63004;-60
2021/07/04 01:06:31;;;;;;;0.40;0.40;;;;;;;15.94;83.32;96639.28;29395;205;63025;-61
2021/07/04 01:07:03;;;;;;;0.40;0.40;;;;;;;15.93;83.51;96634.97;29395;221;63004;-61
2021/07/04 01:07:34;;;;;;;0.50;0.50;;;;;;;15.93;83.60;96639.66;29395;212;63009;-61
2021/07/04 01:08:07;;;;;;;0.40;0.40;;;;;;;15.92;83.51;96647.06;29395;220;63004;-61
2021/07/04 01:08:38;;;;;;;0.40;0.40;;;;;;;15.90;83.58;96641.09;29395;240;63009;-61
2021/07/04 01:09:09;;;;;;;0.40;0.40;;;;;;;15.89;83.46;96639.50;29395;235;63005;-62
2021/07/04 01:09:41;;;;;;;0.40;0.40;;;;;;;15.89;83.88;96644.19;29395;272;63009;-61
2021/07/04 01:10:15;;;;;;;0.40;0.40;;;;;;;15.87;83.61;96644.50;29395;358;63005;-60
2021/07/04 01:10:46;;;;;;;0.40;0.40;;;;;;;15.88;84.05;96639.84;29394;236;64013;-60
2021/07/04 01:11:18;;;;;;;0.40;0.40;;;;;;;15.86;83.94;96645.63;29395;199;63005;-61
2021/07/04 01:11:50;;;;;;;0.40;0.40;;;;;;;15.86;84.25;96650.31;29395;336;63009;-61
2021/07/04 01:12:21;;;;;;;0.40;0.40;;;;;;;15.85;84.20;96640.50;29395;311;63005;-61
2021/07/04 01:12:54;;;;;;;0.40;0.40;;;;;;;15.84;84.18;96645.16;29395;202;63009;-61
2021/07/04 01:13:25;;;;;;;0.40;0.40;;;;;;;15.84;84.20;96645.16;29395;196;63010;-61
2021/07/04 01:13:57;;;;;;;0.40;0.40;;;;;;;15.85;84.12;96640.50;29395;249;63009;-62
2021/07/04 01:14:29;;;;;;;0.40;0.40;;;;;;;15.84;84.33;96642.44;29395;212;63004;-61
2021/07/04 01:15:01;;;;;;;0.40;0.40;;;;;;;15.83;84.44;96645.50;29395;284;63009;-61
2021/07/04 01:15:34;;;;;;;0.40;0.40;;;;;;;15.80;84.30;96640.69;29395;233;63004;-61
2021/07/04 01:16:06;;;;;;;0.40;0.40;;;;;;;15.78;84.45;96635.56;29394;225;64013;-62
2021/07/04 01:16:38;;;;;;;0.40;0.40;;;;;;;15.78;84.38;96643.75;29395;237;63005;-61
2021/07/04 01:17:09;;;;;;;0.40;0.40;;;;;;;15.78;84.60;96638.28;29395;323;63009;-60
2021/07/04 01:17:40;;;;;;;0.40;0.40;;;;;;;15.82;84.15;96635.69;29395;244;63005;-62
2021/07/04 01:18:12;;;;;;;0.30;0.30;;;;;;;15.84;83.94;96636.16;29395;334;63024;-60
2021/07/04 01:18:44;;;;;;;0.40;0.40;;;;;;;15.84;83.60;96636.97;29395;298;63005;-61
2021/07/04 01:19:17;;;;;;;0.30;0.30;;;;;;;15.85;83.69;96640.50;29395;277;63020;-60
2021/07/04 01:19:49;;;;;;;0.40;0.40;;;;;;;15.85;83.69;96633.09;29395;213;63005;-60
2021/07/04 01:20:22;;;;;;;0.40;0.40;;;;;;;15.86;83.60;96647.56;29395;202;63009;-60
2021/07/04 01:20:54;;;;;;;0.40;0.40;;;;;;;15.84;83.47;96642.44;29395;353;63004;-61
2021/07/04 01:21:27;;;;;;;0.30;0.30;;;;;;;15.84;83.50;96647.09;29394;254;64013;-60
2021/07/04 01:22:00;;;;;;;0.40;0.40;;;;;;;15.83;83.55;96640.03;29395;226;63004;-61
2021/07/04 01:22:35;;;;;;;0.40;0.40;;;;;;;15.82;83.48;96639.22;29395;202;63009;-61
2021/07/04 01:23:09;;;;;;;0.40;0.40;;;;;;;15.82;83.49;96639.22;29395;320;63004;-56
2021/07/04 01:23:41;;;;;;;0.40;0.40;;;;;;;15.83;83.94;96640.03;29395;218;63009;-62
2021/07/04 01:24:13;;;;;;;0.40;0.40;;;;;;;15.82;83.57;96639.22;29395;332;63005;-61
2021/07/04 01:24:45;;;;;;;0.40;0.40;;;;;;;15.80;83.80;96630.56;29395;380;63009;-61
2021/07/04 01:25:20;;;;;;;0.40;0.40;;;;;;;15.80;83.44;96640.69;29395;266;63005;-62
2021/07/04 01:25:54;;;;;;;0.40;0.40;;;;;;;15.80;83.73;96641.50;29395;292;63009;-61
2021/07/04 01:26:26;;;;;;;0.40;0.40;;;;;;;15.81;83.59;96636.81;29394;382;64009;-61
2021/07/04 01:26:57;;;;;;;0.40;0.40;;;;;;;15.81;83.62;96639.56;29395;205;63009;-61
2021/07/04 01:27:29;;;;;;;0.40;0.40;;;;;;;15.78;83.32;96641.03;29395;378;63018;-61
2021/07/04 01:28:00;;;;;;;0.40;0.40;;;;;;;15.77;83.63;96631.22;29395;313;63009;-61
2021/07/04 01:28:32;;;;;;;0.40;0.40;;;;;;;15.78;83.52;96632.00;29395;256;63004;-60
2021/07/04 01:29:04;;;;;;;0.40;0.40;;;;;;;15.81;83.65;96640.37;29395;244;63009;-61
2021/07/04 01:29:35;;;;;;;0.40;0.40;;;;;;;15.82;83.30;96639.22;29395;206;63007;-61
2021/07/04 01:30:09;;;;;;;0.40;0.40;;;;;;;15.84;83.66;96641.63;29395;312;63008;-61
2021/07/04 01:30:47;;;;;;;0.40;0.40;;;;;;;15.87;83.24;96630.81;29395;297;63009;-62
2021/07/04 01:31:18;;;;;;;0.40;0.40;;;;;;;15.90;83.31;96634.84;29395;213;63009;-61
2021/07/04 01:31:49;;;;;;;0.40;0.40;;;;;;;15.89;83.34;96638.72;29394;199;64009;-61
2021/07/04 01:32:20;;;;;;;0.40;0.40;;;;;;;15.87;83.11;96647.25;29394;209;64013;-60
2021/07/04 01:32:52;;;;;;;0.40;0.40;;;;;;;15.82;83.33;96628.28;29395;240;63005;-62
2021/07/04 01:33:24;;;;;;;0.40;0.40;;;;;;;15.80;83.24;96635.22;29395;341;63009;-61
2021/07/04 01:33:55;;;;;;;0.40;0.40;;;;;;;15.79;83.63;96639.91;29394;219;64009;-61
2021/07/04 01:34:26;;;;;;;0.40;0.40;;;;;;;15.78;83.63;96641.03;29395;331;63014;-61
2021/07/04 01:34:57;;;;;;;0.40;0.40;;;;;;;15.77;83.42;96642.16;29395;225;63004;-61
2021/07/04 01:35:29;;;;;;;0.50;0.50;;;;;;;15.74;83.96;96637.34;29395;349;63012;-62
2021/07/04 01:36:01;;;;;;;0.40;0.40;;;;;;;15.73;83.70;96638.47;29395;202;63004;-61
2021/07/04 01:36:34;;;;;;;0.40;0.40;;;;;;;15.75;84.07;96638.94;29395;206;63009;-59
2021/07/04 01:37:09;;;;;;;0.40;0.40;;;;;;;15.78;83.79;96640.22;29395;320;63018;-60
2021/07/04 01:37:43;;;;;;;0.30;0.30;;;;;;;15.77;83.70;96638.63;29394;227;64013;-61
2021/07/04 01:38:18;;;;;;;0.40;0.40;;;;;;;15.75;83.65;96633.47;29395;203;63005;-62
2021/07/04 01:38:50;;;;;;;0.40;0.40;;;;;;;15.76;83.77;96646.03;29395;236;63014;-61
2021/07/04 01:39:22;;;;;;;0.40;0.40;;;;;;;15.74;83.78;96643.62;29395;216;63005;-61
2021/07/04 01:39:53;;;;;;;0.40;0.40;;;;;;;15.72;84.21;96636.88;29395;197;63009;-62
2021/07/04 01:40:25;;;;;;;0.40;0.40;;;;;;;15.68;83.98;96650.41;29395;205;63005;-60
2021/07/04 01:40:56;;;;;;;0.40;0.40;;;;;;;15.69;84.17;96645.75;29394;295;64013;-61
2021/07/04 01:41:28;;;;;;;0.40;0.40;;;;;;;15.72;83.79;96639.59;29395;248;63005;-61
2021/07/04 01:41:59;;;;;;;0.40;0.40;;;;;;;15.70;83.97;96648.16;29395;250;63009;-61
2021/07/04 01:42:33;;;;;;;0.40;0.40;;;;;;;15.71;83.75;96643.47;29395;209;63017;-61
2021/07/04 01:43:05;;;;;;;0.40;0.40;;;;;;;15.69;83.97;96645.75;29394;223;64013;-61
2021/07/04 01:43:36;;;;;;;0.40;0.40;;;;;;;15.68;83.84;96650.41;29394;231;63996;-61
2021/07/04 01:44:08;;;;;;;0.40;0.40;;;;;;;15.67;83.92;96648.00;29395;314;63017;-62
2021/07/04 01:44:39;;;;;;;0.40;0.40;;;;;;;15.67;83.87;96648.00;29395;230;63003;-61
2021/07/04 01:45:13;;;;;;;0.40;0.40;;;;;;;15.66;84.13;96647.19;29395;215;63008;-60
2021/07/04 01:45:44;;;;;;;0.40;0.40;;;;;;;15.65;84.13;96640.13;29395;282;63005;-62
2021/07/04 01:46:16;;;;;;;0.40;0.40;;;;;;;15.65;84.32;96644.81;29395;202;63016;-61
2021/07/04 01:46:48;;;;;;;0.40;0.40;;;;;;;15.63;83.97;96641.59;29395;226;63008;-62
2021/07/04 01:47:20;;;;;;;0.40;0.40;;;;;;;15.63;84.02;96650.59;29394;202;64013;-60
2021/07/04 01:47:54;;;;;;;0.40;0.40;;;;;;;15.62;84.68;96650.94;29395;210;63005;-61
2021/07/04 01:48:28;;;;;;;0.40;0.40;;;;;;;15.60;84.34;96645.78;29395;291;63009;-61
2021/07/04 01:49:00;;;;;;;0.40;0.40;;;;;;;15.60;84.59;96642.25;29395;198;63005;-60
2021/07/04 01:49:31;;;;;;;0.40;0.40;;;;;;;15.60;84.51;96643.06;29395;314;63009;-61
2021/07/04 01:50:05;;;;;;;0.40;0.40;;;;;;;15.62;84.25;96645.47;29394;303;64009;-57
2021/07/04 01:50:41;;;;;;;0.40;0.40;;;;;;;15.62;84.54;96642.72;29395;208;63009;-61
2021/07/04 01:51:13;;;;;;;0.40;0.40;;;;;;;15.62;84.43;96648.19;29394;218;64009;-61
2021/07/04 01:51:44;;;;;;;0.30;0.30;;;;;;;15.61;84.60;96643.84;29395;333;63009;-61
2021/07/04 01:52:15;;;;;;;0.40;0.40;;;;;;;15.62;84.25;96646.25;29395;199;63012;-61
2021/07/04 01:52:47;;;;;;;0.40;0.40;;;;;;;15.64;84.29;96644.00;29395;330;63008;-61
2021/07/04 01:53:19;;;;;;;0.40;0.40;;;;;;;15.66;84.12;96640.94;29395;230;63005;-56
2021/07/04 01:53:50;;;;;;;0.40;0.40;;;;;;;15.65;84.13;96645.59;29395;278;63009;-60
2021/07/04 01:54:22;;;;;;;0.40;0.40;;;;;;;15.64;84.33;96645.94;29395;216;63005;-60
2021/07/04 01:54:53;;;;;;;0.40;0.40;;;;;;;15.63;84.38;96636.94;29394;202;64009;-61
2021/07/04 01:55:25;;;;;;;0.40;0.40;;;;;;;15.66;84.16;96647.19;29395;226;63005;-61
2021/07/04 01:55:57;;;;;;;0.40;0.40;;;;;;;15.65;84.44;96642.88;29394;202;64013;-61
2021/07/04 01:56:28;;;;;;;0.40;0.40;;;;;;;15.66;84.49;96646.41;29394;225;64009;-61
2021/07/04 01:57:11;;;;;;;0.40;0.40;;;;;;;15.65;84.36;96647.53;29395;277;63020;-61
2021/07/04 01:57:43;;;;;;;0.40;0.40;;;;;;;15.64;84.31;96637.72;29395;228;63004;-61
2021/07/04 01:58:15;;;;;;;0.40;0.40;;;;;;;15.63;84.31;96639.66;29395;203;63009;-61
2021/07/04 01:58:46;;;;;;;0.40;0.40;;;;;;;15.64;84.13;96645.94;29395;218;63007;-61
2021/07/04 01:59:18;;;;;;;0.40;0.40;;;;;;;15.63;84.22;96636.94;29395;196;63009;-60
2021/07/04 01:59:53;;;;;;;0.40;0.40;;;;;;;15.65;84.54;96644.81;29394;220;64008;-61
2021/07/04 02:00:28;;;;;;;0.40;0.40;;;;;;;15.63;84.80;96647.06;29395;246;63008;-60
2021/07/04 02:01:00;;;;;;;0.30;0.30;;;;;;;15.63;84.59;96647.87;29395;223;63005;-61
2021/07/04 02:01:32;;;;;;;0.35;0.35;;;;;;;15.62;84.55;96640.00;29395;199;63009;-61
2021/07/04 02:02:03;;;;;;;0.40;0.40;;;;;;;15.62;84.72;96637.25;29395;245;63005;-61
2021/07/04 02:02:35;;;;;;;0.65;0.65;;;;;;;15.63;84.65;96638.84;29395;218;63009;-62
2021/07/04 02:03:09;;;;;;;0.40;0.40;;;;;;;15.66;84.49;96638.19;29394;234;64009;-61
2021/07/04 02:03:40;;;;;;;0.40;0.40;;;;;;;15.67;84.12;96637.06;29395;197;63009;-61
2021/07/04 02:04:11;;;;;;;0.40;0.40;;;;;;;15.68;84.37;96641.41;29395;210;63004;-60
2021/07/04 02:04:43;;;;;;;0.40;0.40;;;;;;;15.68;84.39;96649.59;29395;206;63009;-62
2021/07/04 02:05:15;;;;;;;0.40;0.40;;;;;;;15.67;84.06;96631.59;29395;206;63004;-60
2021/07/04 02:05:46;;;;;;;0.40;0.40;;;;;;;15.68;83.96;96644.12;29395;216;63009;-61
2021/07/04 02:06:18;;;;;;;0.40;0.40;;;;;;;15.67;84.39;96637.06;29395;216;63004;-60
2021/07/04 02:06:49;;;;;;;0.40;0.40;;;;;;;15.66;84.20;96635.47;29394;196;64013;-61
2021/07/04 02:07:20;;;;;;;0.40;0.40;;;;;;;15.66;84.52;96627.25;29395;289;63004;-61
2021/07/04 02:07:51;;;;;;;0.40;0.40;;;;;;;15.64;84.46;96633.06;29395;314;63008;-60
2021/07/04 02:08:23;;;;;;;0.40;0.40;;;;;;;15.64;84.33;96632.25;29395;197;63005;-57
2021/07/04 02:08:54;;;;;;;0.40;0.40;;;;;;;15.65;84.13;96633.84;29395;197;63009;-61
2021/07/04 02:09:25;;;;;;;0.40;0.40;;;;;;;15.64;84.39;96637.72;29395;200;63005;-60
2021/07/04 02:09:56;;;;;;;0.40;0.40;;;;;;;15.63;84.33;96625.19;29395;208;63009;-61
2021/07/04 02:10:30;;;;;;;0.40;0.40;;;;;;;15.64;84.37;96632.25;29395;265;63005;-61
2021/07/04 02:11:01;;;;;;;0.40;0.40;;;;;;;15.63;84.42;96630.66;29394;197;64009;-60
2021/07/04 02:11:32;;;;;;;0.40;0.40;;;;;;;15.63;84.45;96631.44;29394;197;64009;-61
2021/07/04 02:12:04;;;;;;;0.40;0.40;;;;;;;15.64;84.37;96627.59;29395;199;63009;-61
2021/07/04 02:12:36;;;;;;;0.40;0.40;;;;;;;15.64;84.38;96633.06;29395;313;63004;-62
2021/07/04 02:13:10;;;;;;;0.40;0.40;;;;;;;15.64;84.32;96626.78;29394;314;64013;-61
2021/07/04 02:13:41;;;;;;;0.40;0.40;;;;;;;15.64;84.15;96632.25;29395;206;63016;-62
2021/07/04 02:14:12;;;;;;;0.40;0.40;;;;;;;15.63;84.27;96627.91;29395;227;63008;-60
2021/07/04 02:14:44;;;;;;;0.40;0.40;;;;;;;15.64;84.42;96633.06;29394;202;64004;-61
2021/07/04 02:15:18;;;;;;;0.40;0.40;;;;;;;15.64;84.87;96627.59;29395;267;63009;-60
2021/07/04 02:15:50;;;;;;;0.40;0.40;;;;;;;15.64;84.58;96632.25;29395;237;63005;-61
2021/07/04 02:16:22;;;;;;;0.40;0.40;;;;;;;15.62;84.85;96635.31;29394;303;64014;-60
2021/07/04 02:16:53;;;;;;;0.40;0.40;;;;;;;15.65;84.77;96628.38;29395;302;63005;-61
2021/07/04 02:17:24;;;;;;;0.40;0.40;;;;;;;15.65;84.39;96623.72;29395;363;63009;-60
2021/07/04 02:17:56;;;;;;;0.40;0.40;;;;;;;15.66;84.25;96630.00;29395;309;63005;-60
2021/07/04 02:18:27;;;;;;;0.40;0.40;;;;;;;15.67;84.17;96631.59;29394;210;64013;-62
2021/07/04 02:18:58;;;;;;;0.40;0.40;;;;;;;15.67;84.09;96631.59;29395;270;63005;-61
2021/07/04 02:19:34;;;;;;;0.40;0.40;;;;;;;15.68;84.18;96627.72;29395;225;63009;-60
2021/07/04 02:20:39;;;;;;;0.40;0.40;;;;;;;15.67;84.20;96631.59;29395;223;63004;-61
2021/07/04 02:21:11;;;;;;;0.40;0.40;;;;;;;15.66;84.14;96625.31;29395;243;63004;-60
2021/07/04 02:21:42;;;;;;;0.40;0.40;;;;;;;15.64;84.00;96624.84;29395;316;63008;-61
2021/07/04 02:22:13;;;;;;;0.40;0.40;;;;;;;15.64;84.41;96624.06;29395;227;63004;-61
2021/07/04 02:22:44;;;;;;;0.40;0.40;;;;;;;15.64;84.31;96632.25;29395;198;63009;-61
2021/07/04 02:23:18;;;;;;;0.40;0.40;;;;;;;15.63;84.55;96620.50;29395;269;63005;-61
2021/07/04 02:23:49;;;;;;;0.40;0.40;;;;;;;15.64;84.40;96627.59;29394;204;64014;-60
2021/07/04 02:24:21;;;;;;;0.40;0.40;;;;;;;15.66;84.06;96624.53;29395;202;63005;-61
2021/07/04 02:24:52;;;;;;;0.40;0.40;;;;;;;15.65;83.97;96628.38;29395;214;63009;-61
2021/07/04 02:25:25;;;;;;;0.40;0.40;;;;;;;15.65;84.28;96628.38;29395;238;63005;-60
2021/07/04 02:25:57;;;;;;;0.40;0.40;;;;;;;15.64;84.01;96621.31;29395;286;63009;-61
2021/07/04 02:26:29;;;;;;;0.40;0.40;;;;;;;15.63;84.06;96625.19;29395;267;63005;-61
2021/07/04 02:27:00;;;;;;;0.40;0.40;;;;;;;15.61;84.01;96625.50;29395;328;63009;-61
2021/07/04 02:27:32;;;;;;;0.40;0.40;;;;;;;15.61;84.43;96628.25;29395;218;63018;-60
2021/07/04 02:28:05;;;;;;;0.40;0.40;;;;;;;15.61;84.11;96628.25;29395;211;63011;-61
2021/07/04 02:28:36;;;;;;;0.40;0.40;;;;;;;15.61;84.35;96627.44;29395;269;63004;-61
2021/07/04 02:29:07;;;;;;;0.40;0.40;;;;;;;15.60;84.29;96623.09;29394;227;64013;-61
2021/07/04 02:29:40;;;;;;;0.40;0.40;;;;;;;15.60;84.53;96621.19;29395;214;63004;-60
2021/07/04 02:30:12;;;;;;;0.40;0.40;;;;;;;15.59;84.79;96627.00;29395;256;63009;-62
2021/07/04 02:30:46;;;;;;;0.40;0.40;;;;;;;15.57;84.82;96630.06;29395;260;63005;-62
2021/07/04 02:31:18;;;;;;;0.40;0.40;;;;;;;15.58;84.50;96622.66;29395;239;63009;-60
2021/07/04 02:31:49;;;;;;;0.40;0.40;;;;;;;15.58;84.63;96625.41;29395;234;63005;-61
2021/07/04 02:32:20;;;;;;;0.40;0.40;;;;;;;15.58;84.52;96623.47;29395;331;63009;-61
2021/07/04 02:32:52;;;;;;;0.40;0.40;;;;;;;15.58;84.67;96619.94;29395;281;63005;-61
2021/07/04 02:33:25;;;;;;;0.40;0.40;;;;;;;15.59;84.44;96624.28;29395;203;63009;-61
2021/07/04 02:33:56;;;;;;;0.40;0.40;;;;;;;15.59;84.42;96624.28;29394;205;64009;-61